createdAt,value
2018-06-19T06:30:51.506Z,20.00
2018-06-19T06:33:19.676Z,19.90
2018-06-19T06:35:47.814Z,19.80
2018-06-19T06:38:15.958Z,19.60
2018-06-19T06:43:11.992Z,20.30
2018-06-19T06:45:40.153Z,20.60
2018-06-19T06:48:08.304Z,20.90
2018-06-19T06:50:36.485Z,21.00
2018-06-19T06:53:04.660Z,21.10
2018-06-19T06:55:32.811Z,20.90
2018-06-19T06:58:00.957Z,20.70
2018-06-19T07:02:57.010Z,20.50
2018-06-19T07:05:25.165Z,20.60
2018-06-19T07:07:53.312Z,20.70
2018-06-19T07:10:21.465Z,20.70
2018-06-19T07:12:49.622Z,20.80
2018-06-19T07:15:17.769Z,20.90
2018-06-19T07:17:45.903Z,21.00
2018-06-19T07:20:14.042Z,21.20
2018-06-19T07:22:42.191Z,21.40
2018-06-19T07:27:38.585Z,21.60
2018-06-19T07:30:06.732Z,21.70
2018-06-19T07:32:34.896Z,21.90
2018-06-19T07:35:03.041Z,22.10
2018-06-19T07:37:31.196Z,22.30
2018-06-19T07:39:59.341Z,22.50
2018-06-19T07:42:27.485Z,22.50
2018-06-19T07:47:23.563Z,22.30
2018-06-19T07:49:51.717Z,22.30
2018-06-19T07:52:19.881Z,22.30
2018-06-19T07:54:48.028Z,22.30
2018-06-19T07:57:16.243Z,22.20
2018-06-19T07:59:44.329Z,22.30
2018-06-19T08:02:12.481Z,22.40
2018-06-19T08:04:40.623Z,22.30
2018-06-19T08:07:08.780Z,22.20
2018-06-19T08:09:37.100Z,22.30
2018-06-19T08:14:34.876Z,22.50
2018-06-19T08:19:31.947Z,22.70
2018-06-19T08:22:00.228Z,22.70
2018-06-19T08:24:28.368Z,22.60
2018-06-19T08:26:56.525Z,22.50
2018-06-19T08:29:24.665Z,22.70
2018-06-19T08:31:52.816Z,22.90
2018-06-19T08:39:17.958Z,22.90
2018-06-19T08:41:46.075Z,23.20
2018-06-19T08:44:14.178Z,23.60
2018-06-19T08:46:42.704Z,23.60
2018-06-19T08:49:12.193Z,23.70
2018-06-19T08:54:08.333Z,23.90
2018-06-19T08:59:05.013Z,23.60
2018-06-19T09:01:33.896Z,23.30
2018-06-19T09:04:02.085Z,23.10
2018-06-19T09:06:30.257Z,23.10
2018-06-19T09:08:58.403Z,23.10
2018-06-19T09:13:54.600Z,23.50
2018-06-19T09:16:22.752Z,23.60
2018-06-19T09:18:50.905Z,23.80
2018-06-19T09:21:19.040Z,23.80
2018-06-19T09:23:49.620Z,23.50
2018-06-19T09:26:17.766Z,23.00
2018-06-19T09:28:45.924Z,22.80
2018-06-19T09:31:14.259Z,22.70
2018-06-19T09:33:42.432Z,22.90
2018-06-19T09:36:10.584Z,23.30
2018-06-19T09:41:06.840Z,24.10
2018-06-19T09:43:35.004Z,24.30
2018-06-19T09:48:31.107Z,23.80
2018-06-19T09:50:59.365Z,24.00
2018-06-19T09:53:27.570Z,24.30
2018-06-19T09:55:55.836Z,24.40
2018-06-19T09:58:24.169Z,24.50
2018-06-19T10:03:20.300Z,24.10
2018-06-19T10:08:16.384Z,24.00
2018-06-19T10:10:44.577Z,23.90
2018-06-19T10:13:12.799Z,23.90
2018-06-19T10:18:08.876Z,23.80
2018-06-19T10:20:37.034Z,23.50
2018-06-19T10:23:05.232Z,23.20
2018-06-19T10:25:33.397Z,23.30
2018-06-19T10:28:01.556Z,23.30
2018-06-19T10:30:29.697Z,23.40
2018-06-19T10:32:57.857Z,23.60
2018-06-19T10:35:26.005Z,23.70
2018-06-19T10:37:54.184Z,23.90
2018-06-19T10:40:22.320Z,24.00
2018-06-19T10:45:18.624Z,24.00
2018-06-19T10:47:46.768Z,23.90
2018-06-19T10:50:14.966Z,24.00
2018-06-19T10:52:43.137Z,24.40
2018-06-19T10:55:11.338Z,24.90
2018-06-19T10:57:39.487Z,25.20
2018-06-19T11:00:07.724Z,25.70
2018-06-19T11:05:03.862Z,26.00
2018-06-19T11:07:31.963Z,26.30
2018-06-19T11:10:01.624Z,26.20
2018-06-19T11:12:29.929Z,26.00
2018-06-19T11:14:58.088Z,25.80
2018-06-19T11:19:54.478Z,25.60
2018-06-19T11:22:22.632Z,25.50
2018-06-19T11:24:50.795Z,25.20
2018-06-19T11:29:47.186Z,24.90
2018-06-19T11:32:15.320Z,24.70
2018-06-19T11:37:11.576Z,24.60
2018-06-19T11:42:07.688Z,24.40
2018-06-19T11:44:35.973Z,24.50
2018-06-19T11:47:04.125Z,24.70
2018-06-19T11:49:32.284Z,24.90
2018-06-19T11:52:00.514Z,24.90
2018-06-19T11:56:57.654Z,24.80
2018-06-19T11:59:25.756Z,24.90
2018-06-19T12:04:21.840Z,24.70
2018-06-19T12:06:50.116Z,24.60
2018-06-19T12:09:18.166Z,24.50
2018-06-19T12:11:46.351Z,24.40
2018-06-19T12:14:14.495Z,24.50
2018-06-19T12:19:10.671Z,25.10
2018-06-19T12:21:38.818Z,25.40
2018-06-19T12:26:34.992Z,26.00
2018-06-19T12:29:03.129Z,26.00
2018-06-19T12:31:31.291Z,25.60
2018-06-19T12:33:59.448Z,25.10
2018-06-19T12:36:27.625Z,24.80
2018-06-19T12:38:55.757Z,24.70
2018-06-19T12:41:44.777Z,24.50
2018-06-19T12:44:13.754Z,24.20
2018-06-19T12:46:42.370Z,24.00
2018-06-19T12:51:51.626Z,24.20
2018-06-19T12:56:54.109Z,24.00
2018-06-19T12:59:22.249Z,24.10
2018-06-19T13:01:50.401Z,24.30
2018-06-19T13:04:29.885Z,24.40
2018-06-19T13:06:58.042Z,24.60
2018-06-19T13:09:26.192Z,24.90
2018-06-19T13:11:54.348Z,25.10
2018-06-19T13:14:35.364Z,25.20
2018-06-19T13:17:15.021Z,25.40
2018-06-19T13:19:54.789Z,25.70
2018-06-19T13:22:22.952Z,25.50
2018-06-19T13:24:51.152Z,25.40
2018-06-19T13:27:19.297Z,25.50
2018-06-19T13:30:01.029Z,25.60
2018-06-19T13:32:30.110Z,25.70
2018-06-19T13:34:58.302Z,25.90
2018-06-19T13:37:26.437Z,26.10
2018-06-19T13:41:10.217Z,26.30
2018-06-19T13:43:49.836Z,26.20
2018-06-19T13:48:45.904Z,26.00
2018-06-19T13:51:14.893Z,25.80
2018-06-19T13:57:40.035Z,25.10
2018-06-19T14:02:37.704Z,25.30
2018-06-19T14:07:39.921Z,24.80
2018-06-19T14:12:50.660Z,24.10
2018-06-19T14:15:19.946Z,23.80
2018-06-19T14:17:48.100Z,23.80
2018-06-19T14:20:16.566Z,24.10
2018-06-19T14:22:44.720Z,24.40
2018-06-19T14:25:12.874Z,24.60
2018-06-19T14:30:08.940Z,24.90
2018-06-19T14:32:37.202Z,24.90
2018-06-19T14:37:33.548Z,24.80
2018-06-19T14:42:30.441Z,24.80
2018-06-19T14:44:58.605Z,24.90
2018-06-19T14:47:26.861Z,25.00
2018-06-19T14:52:22.976Z,25.30
2018-06-19T14:54:51.117Z,25.40
2018-06-19T14:57:19.282Z,25.40
2018-06-19T14:59:47.452Z,25.40
2018-06-19T15:02:15.849Z,25.40
2018-06-19T15:04:44.018Z,25.30
2018-06-19T15:07:12.204Z,25.40
2018-06-19T15:09:40.371Z,25.50
2018-06-19T15:12:08.548Z,25.40
2018-06-19T15:14:36.733Z,25.20
2018-06-19T15:17:04.911Z,24.90
2018-06-19T15:19:33.256Z,24.70
2018-06-19T15:22:01.410Z,24.50
2018-06-19T15:29:25.533Z,24.30
2018-06-19T15:34:21.957Z,24.10
2018-06-19T15:36:50.105Z,24.10
2018-06-19T15:39:18.283Z,24.10
2018-06-19T15:41:46.473Z,24.20
2018-06-19T15:44:14.685Z,24.30
2018-06-19T15:46:42.805Z,24.40
2018-06-19T15:49:10.979Z,24.70
2018-06-19T15:51:39.133Z,24.60
2018-06-19T15:54:07.325Z,24.50
2018-06-19T15:56:35.487Z,24.40
2018-06-19T15:59:03.652Z,24.30
2018-06-19T16:01:31.835Z,24.20
2018-06-19T16:04:00.026Z,24.00
2018-06-19T16:06:28.210Z,23.90
2018-06-19T16:08:56.356Z,23.90
2018-06-19T16:11:24.517Z,23.90
2018-06-19T16:13:52.689Z,24.20
2018-06-19T16:16:20.849Z,24.20
2018-06-19T16:21:17.569Z,23.90
2018-06-19T16:23:45.713Z,23.70
2018-06-19T16:26:13.868Z,23.50
2018-06-19T16:28:42.089Z,23.40
2018-06-19T16:31:10.244Z,23.40
2018-06-19T16:33:38.401Z,23.40
2018-06-19T16:36:06.586Z,23.40
2018-06-19T16:38:34.754Z,23.20
2018-06-19T16:43:30.824Z,23.00
2018-06-19T16:45:59.017Z,22.90
2018-06-19T16:48:27.176Z,22.90
2018-06-19T16:50:55.332Z,22.90
2018-06-19T16:53:23.669Z,23.00
2018-06-19T16:58:19.782Z,23.00
2018-06-19T17:00:47.950Z,23.00
2018-06-19T17:03:16.121Z,23.10
2018-06-19T17:05:44.311Z,23.10
2018-06-19T17:08:12.452Z,23.10
2018-06-19T17:10:40.600Z,23.10
2018-06-19T17:13:08.771Z,23.10
2018-06-19T17:18:04.969Z,23.10
2018-06-19T17:20:33.124Z,23.10
2018-06-19T17:23:01.272Z,23.00
2018-06-19T17:27:57.504Z,23.00
2018-06-19T17:32:53.575Z,22.90
2018-06-19T17:35:21.790Z,22.80
2018-06-19T17:37:49.934Z,22.80
2018-06-19T17:40:18.088Z,22.70
2018-06-19T17:45:14.206Z,22.70
2018-06-19T17:47:42.371Z,22.60
2018-06-19T17:50:10.532Z,22.70
2018-06-19T17:52:38.709Z,22.60
2018-06-19T17:55:06.893Z,22.60
2018-06-19T17:57:35.064Z,22.60
2018-06-19T18:00:03.241Z,22.50
2018-06-19T18:02:31.384Z,22.40
2018-06-19T18:04:59.592Z,22.40
2018-06-19T18:07:27.749Z,22.30
2018-06-19T18:09:55.910Z,22.30
2018-06-19T18:12:24.057Z,22.20
2018-06-19T18:14:52.228Z,22.20
2018-06-19T18:17:20.387Z,22.20
2018-06-19T18:22:17.113Z,22.10
2018-06-19T18:24:45.263Z,22.10
2018-06-19T18:27:13.420Z,22.10
2018-06-19T18:29:41.569Z,22.10
2018-06-19T18:34:37.772Z,21.90
2018-06-19T18:37:05.921Z,21.80
2018-06-19T18:39:34.850Z,21.70
2018-06-19T18:42:02.996Z,21.70
2018-06-19T18:44:31.234Z,21.70
2018-06-19T18:49:27.515Z,21.60
2018-06-19T18:51:55.682Z,21.60
2018-06-19T18:54:23.836Z,21.50
2018-06-19T18:59:19.952Z,21.40
2018-06-19T19:01:48.126Z,21.30
2018-06-19T19:04:16.285Z,21.20
2018-06-19T19:06:44.534Z,21.10
2018-06-19T19:09:12.681Z,21.10
2018-06-19T19:14:08.793Z,20.90
2018-06-19T19:16:42.363Z,20.80
2018-06-19T19:19:12.884Z,20.70
2018-06-19T19:21:41.049Z,20.50
2018-06-19T19:24:09.201Z,20.40
2018-06-19T19:26:43.853Z,20.30
2018-06-19T19:29:17.590Z,20.20
2018-06-19T19:31:45.767Z,20.00
2018-06-19T19:34:13.911Z,20.00
2018-06-19T19:36:48.073Z,19.80
2018-06-19T19:39:21.842Z,19.70
2018-06-19T19:41:49.992Z,19.60
2018-06-19T19:44:18.183Z,19.50
2018-06-19T19:46:53.097Z,19.40
2018-06-19T19:49:21.246Z,19.30
2018-06-19T19:51:49.404Z,19.20
2018-06-19T19:54:17.574Z,19.10
2018-06-19T19:56:51.245Z,19.00
2018-06-19T19:59:19.373Z,18.90
2018-06-19T20:01:47.517Z,18.80
2018-06-19T20:04:15.668Z,18.70
2018-06-19T20:06:43.813Z,18.60
2018-06-19T20:11:39.882Z,18.40
2018-06-19T20:14:08.024Z,18.40
2018-06-19T20:19:04.108Z,18.20
2018-06-19T20:21:32.264Z,18.10
2018-06-19T20:24:00.412Z,18.10
2018-06-19T20:28:56.478Z,17.90
2018-06-19T20:31:24.629Z,17.80
2018-06-19T20:33:52.776Z,17.80
2018-06-19T20:36:20.916Z,17.70
2018-06-19T20:38:49.085Z,17.70
2018-06-19T20:41:17.269Z,17.60
2018-06-19T20:43:45.513Z,17.60
2018-06-19T20:48:41.593Z,17.50
2018-06-19T20:51:09.765Z,17.40
2018-06-19T20:53:37.914Z,17.40
2018-06-19T20:56:06.092Z,17.30
2018-06-19T20:58:34.244Z,17.20
2018-06-19T21:03:30.326Z,17.10
2018-06-19T21:05:58.609Z,17.10
2018-06-19T21:08:32.192Z,17.00
2018-06-19T21:11:00.341Z,16.90
2018-06-19T21:13:28.496Z,16.90
2018-06-19T21:15:56.652Z,16.80
2018-06-19T21:18:24.804Z,16.80
2018-06-19T21:20:52.984Z,16.70
2018-06-19T21:23:21.136Z,16.60
2018-06-19T21:25:49.292Z,16.60
2018-06-19T21:28:17.489Z,16.60
2018-06-19T21:30:45.653Z,16.50
2018-06-19T21:35:42.256Z,16.40
2018-06-19T21:38:10.405Z,16.40
2018-06-19T21:40:38.552Z,16.40
2018-06-19T21:45:34.633Z,16.30
2018-06-19T21:48:02.877Z,16.20
2018-06-19T21:53:00.141Z,16.20
2018-06-19T21:57:56.413Z,16.10
2018-06-19T22:00:24.548Z,16.10
2018-06-19T22:02:52.745Z,16.10
2018-06-19T22:05:20.897Z,16.00
2018-06-19T22:07:49.045Z,16.00
2018-06-19T22:10:17.193Z,16.00
2018-06-19T22:12:45.342Z,16.00
2018-06-19T22:17:41.424Z,15.90
2018-06-19T22:20:09.608Z,15.90
2018-06-19T22:22:37.768Z,15.90
2018-06-19T22:25:05.927Z,15.90
2018-06-19T22:27:34.096Z,15.80
2018-06-19T22:30:02.249Z,15.80
2018-06-19T22:34:59.335Z,15.80
2018-06-19T22:37:27.536Z,15.80
2018-06-19T22:39:55.633Z,15.80
2018-06-19T22:42:23.772Z,15.80
2018-06-19T22:44:51.936Z,15.80
2018-06-19T22:47:20.085Z,15.80
2018-06-19T22:49:48.269Z,15.80
2018-06-19T22:54:44.338Z,15.80
2018-06-19T22:57:12.484Z,15.70
2018-06-19T23:02:08.598Z,15.70
2018-06-19T23:04:36.765Z,15.70
2018-06-19T23:07:04.904Z,15.60
2018-06-19T23:09:33.069Z,15.60
2018-06-19T23:12:01.212Z,15.60
2018-06-19T23:14:29.369Z,15.60
2018-06-19T23:16:57.517Z,15.60
2018-06-19T23:19:25.665Z,15.60
2018-06-19T23:21:53.816Z,15.60
2018-06-19T23:26:49.878Z,15.50
2018-06-19T23:29:18.050Z,15.50
2018-06-19T23:31:46.192Z,15.40
2018-06-19T23:34:14.349Z,15.40
2018-06-19T23:36:42.496Z,15.40
2018-06-19T23:39:10.744Z,15.50
2018-06-19T23:41:38.924Z,15.50
2018-06-19T23:44:07.120Z,15.50
2018-06-19T23:46:35.265Z,15.50
2018-06-19T23:51:31.744Z,15.60
2018-06-19T23:53:59.881Z,15.60
2018-06-19T23:58:55.948Z,15.60
